Lodi, CA (95242)

8:13 PM PDT on May 03, 2015 (GMT -0700)
Lodi Lake | | Change Station
CLOSE
Current Station
Personal Weather Station
Location: Lodi, CA
Elevation: 49 ft
Nearby Weather Stations

Elev 49 ft 38.15 °N, 121.29 °W | Updated 1 second ago

Clear
Clear
60.3 °F
Feels Like 60.3 °F
N
8.1
Wind Variable Wind from NW
Gusts 8.1 mph

Today
High -- | Low -- °F
--% Chance of Precip.
Yesterday
High -- | Low -- °F
Precip. -- in
6:06 AM 7:58 PM
Full, 100% visible
Pressure 29.81 in
Visibility 10.0 miles
Clouds Clear
Dew Point 50 °F
Humidity 70%
Rainfall 0.00 in
Snow Depth Not available.
UV 0 out of 12
Pollen 7.50 out of 12
Air Quality Not available.
Flu Activity Sporadic
METAR KSCK 040255Z 31008KT 10SM CLR 19/10 A2981 RMK AO2 SLP093 T01940100 53004

More Conditions Fewer Conditions

Pressure 29.81 in
Visibility 10.0 miles
Clouds Clear
Dew Point 50 °F
Humidity 70%
Rainfall 0.00 in
Snow Depth Not available.
UV 0 out of 12
Pollen 7.50 out of 12
Air Quality Not available.
Flu Activity Sporadic
METAR KSCK 040255Z 31008KT 10SM CLR 19/10 A2981 RMK AO2 SLP093 T01940100 53004

More Conditions Fewer Conditions

Nepal has a long way to go to dig out and rebuild from a devastating earthquake. We have teamed up with several charities and organizations to make contributing to the relief effort as easy as possible.
How you can help: Portlight Strategies | Red Cross

10-Day Weather Forecast

Almanac

Astronomy

May. 03, 2015 Rise Set
Actual Time
Civil Twilight
Nautical Twilight
Astronomical Twilight
Moon
Length of Visible Light
Length of Day
Tomorrow will be .
, % of the Moon is Illuminated

Today's Extremes

State Highs State Lows

Community

WunderPhotos

Upload Photos

1,818,491 photos uploaded!

WunderBlogs® & News

Nearby

Air Quality

  Air Quality AQ Index Pollutant
Not available.

Snow Depth

Station Depth Elevation

Earthquake Activity

City Distance Mag. Time & Date
Minimum magnitude displayed is 2.5.

Coastal Water Temperatures

Place Temperature

Stations

Nearby Weather Stations

Station Location Temp. Windchill Dew Point Humidity Wind Precip. Elev Updated Type